createdAt,value
2023-04-02T00:01:22.818Z,1.60
2023-04-02T00:06:32.557Z,1.23
2023-04-02T00:11:37.517Z,1.27
2023-04-02T00:16:39.348Z,1.23
2023-04-02T00:21:42.095Z,1.40
2023-04-02T00:26:46.040Z,1.43
2023-04-02T00:31:52.095Z,1.30
2023-04-02T00:36:54.353Z,1.70
2023-04-02T00:42:07.113Z,1.53
2023-04-02T00:47:31.812Z,1.40
2023-04-02T00:52:33.658Z,1.50
2023-04-02T00:57:36.422Z,1.63
2023-04-02T01:02:40.696Z,1.60
2023-04-02T01:08:06.470Z,1.70
2023-04-02T01:13:31.326Z,1.60
2023-04-02T01:18:51.897Z,1.80
2023-04-02T01:23:59.048Z,1.73
2023-04-02T01:29:11.000Z,1.60
2023-04-02T01:34:16.450Z,2.50
2023-04-02T01:39:50.414Z,1.80
2023-04-02T01:44:58.961Z,2.47
2023-04-02T01:50:03.714Z,2.20
2023-04-02T01:55:09.015Z,2.50
2023-04-02T02:00:15.975Z,2.47
2023-04-02T02:05:23.016Z,2.33
2023-04-02T02:10:29.515Z,2.50
2023-04-02T02:15:33.206Z,2.77
2023-04-02T02:20:36.157Z,2.67
2023-04-02T02:25:38.027Z,2.13
2023-04-02T02:30:58.537Z,2.67
2023-04-02T02:36:04.907Z,2.60
2023-04-02T02:41:26.317Z,2.60
2023-04-02T02:46:30.446Z,2.57
2023-04-02T02:51:49.031Z,2.87
2023-04-02T02:57:01.715Z,2.23
2023-04-02T03:02:05.303Z,2.00
2023-04-02T03:07:08.936Z,2.33
2023-04-02T03:12:42.747Z,3.10
2023-04-02T03:17:55.349Z,3.50
2023-04-02T03:23:19.171Z,3.40
2023-04-02T03:28:27.909Z,3.50
2023-04-02T03:33:34.709Z,2.90
2023-04-02T03:38:43.805Z,2.40
2023-04-02T03:43:53.053Z,2.00
2023-04-02T03:48:57.302Z,1.80
2023-04-02T03:53:59.552Z,1.57
2023-04-02T03:59:38.400Z,1.70
2023-04-02T04:04:41.979Z,1.80
2023-04-02T04:09:45.731Z,1.77
2023-04-02T04:14:55.714Z,1.60
2023-04-02T04:20:10.390Z,2.00
2023-04-02T04:25:22.493Z,2.00
2023-04-02T04:30:42.027Z,2.00
2023-04-02T04:35:48.594Z,2.27
2023-04-02T04:40:55.528Z,2.20
2023-04-02T04:46:09.953Z,2.43
2023-04-02T04:51:42.369Z,2.30
2023-04-02T04:56:47.557Z,2.10
2023-04-02T05:02:15.058Z,1.97
2023-04-02T05:07:21.497Z,2.20
2023-04-02T05:12:42.377Z,2.10
2023-04-02T05:18:00.614Z,2.20
2023-04-02T05:23:18.630Z,2.20
2023-04-02T05:28:30.619Z,2.57
2023-04-02T05:33:36.354Z,1.97
2023-04-02T05:38:46.330Z,2.37
2023-04-02T05:44:13.456Z,2.30
2023-04-02T05:49:25.652Z,2.60
2023-04-02T05:54:32.642Z,2.83
2023-04-02T05:59:39.478Z,2.80
2023-04-02T06:04:44.324Z,2.70
2023-04-02T06:09:52.540Z,2.80
2023-04-02T06:14:54.313Z,2.50
2023-04-02T06:19:58.206Z,2.80
2023-04-02T06:25:06.454Z,2.70
2023-04-02T06:30:21.754Z,3.17
2023-04-02T06:35:26.330Z,2.63
2023-04-02T06:40:40.283Z,2.77
2023-04-02T06:45:49.602Z,2.30
2023-04-02T06:51:08.446Z,2.50
2023-04-02T06:56:38.433Z,2.30
2023-04-02T07:01:49.100Z,2.80
2023-04-02T07:06:51.290Z,2.20
2023-04-02T07:11:53.729Z,2.60
2023-04-02T07:16:55.776Z,2.10
2023-04-02T07:21:57.792Z,2.20
2023-04-02T07:27:03.840Z,2.30
2023-04-02T07:32:05.556Z,2.90
2023-04-02T07:37:07.301Z,2.73
2023-04-02T07:42:08.928Z,2.53
2023-04-02T07:47:11.600Z,3.10
2023-04-02T07:52:13.457Z,2.90
2023-04-02T07:57:15.051Z,2.50
2023-04-02T08:02:21.113Z,2.50
2023-04-02T08:07:22.725Z,2.07
2023-04-02T08:12:24.388Z,2.53
2023-04-02T08:17:31.247Z,2.80
2023-04-02T08:22:33.302Z,3.40
2023-04-02T08:27:34.847Z,3.23
2023-04-02T08:32:36.591Z,3.23
2023-04-02T08:37:38.202Z,3.13
2023-04-02T08:42:58.555Z,3.10
2023-04-02T08:48:03.285Z,3.10
2023-04-02T08:53:08.032Z,3.13
2023-04-02T08:58:22.974Z,2.97
2023-04-02T09:03:30.914Z,2.50
2023-04-02T09:08:32.829Z,2.50
2023-04-02T09:13:37.529Z,2.70
2023-04-02T09:18:39.356Z,1.37
2023-04-02T09:23:41.236Z,0.97
2023-04-02T09:28:42.974Z,1.43
2023-04-02T09:33:49.760Z,1.50
2023-04-02T09:39:16.144Z,1.30
2023-04-02T09:44:28.083Z,2.90
2023-04-02T09:49:31.629Z,3.40
2023-04-02T09:54:33.196Z,3.73
2023-04-02T09:59:34.769Z,3.23
2023-04-02T10:04:45.010Z,3.40
2023-04-02T10:09:57.616Z,3.57
2023-04-02T10:14:59.974Z,3.33
2023-04-02T10:20:20.666Z,3.37
2023-04-02T10:25:25.319Z,3.20
2023-04-02T10:30:46.023Z,2.07
2023-04-02T10:36:08.966Z,2.10
2023-04-02T10:41:33.530Z,2.00
2023-04-02T10:46:59.668Z,1.90
2023-04-02T10:52:21.166Z,1.87
2023-04-02T10:57:31.641Z,2.00
2023-04-02T11:02:45.457Z,1.97
2023-04-02T11:08:30.657Z,2.10
2023-04-02T11:13:58.032Z,2.00
2023-04-02T11:19:16.927Z,1.90
2023-04-02T11:24:31.551Z,1.80
2023-04-02T11:29:34.616Z,1.77
2023-04-02T11:34:42.876Z,1.77
2023-04-02T11:39:53.639Z,1.80
2023-04-02T11:44:57.444Z,2.00
2023-04-02T11:50:01.514Z,1.70
2023-04-02T11:55:17.878Z,1.60
2023-04-02T12:00:27.335Z,1.47
2023-04-02T12:05:36.785Z,1.73
2023-04-02T12:10:57.009Z,1.70
2023-04-02T12:15:59.215Z,1.80
2023-04-02T12:21:01.241Z,2.00
2023-04-02T12:26:08.961Z,1.80
2023-04-02T12:31:18.010Z,1.67
2023-04-02T12:36:22.995Z,1.70
2023-04-02T12:41:27.309Z,2.10
2023-04-02T12:46:33.351Z,2.83
2023-04-02T12:51:38.696Z,2.87
2023-04-02T12:56:40.513Z,2.43
2023-04-02T13:01:55.575Z,2.77
2023-04-02T13:06:57.445Z,3.00
2023-04-02T13:11:59.435Z,1.80
2023-04-02T13:17:01.272Z,1.77
2023-04-02T13:22:03.790Z,1.77
2023-04-02T13:27:05.547Z,2.30
2023-04-02T13:32:14.622Z,1.60
2023-04-02T13:37:16.476Z,1.40
2023-04-02T13:42:18.475Z,1.67
2023-04-02T13:47:21.522Z,1.13
2023-04-02T13:52:23.222Z,1.60
2023-04-02T13:57:25.310Z,2.50
2023-04-02T14:02:27.459Z,2.70
2023-04-02T14:07:48.252Z,2.43
2023-04-02T14:12:52.987Z,2.30
2023-04-02T14:18:04.944Z,2.77
2023-04-02T14:23:21.848Z,2.90
2023-04-02T14:28:30.431Z,2.37
2023-04-02T14:33:53.303Z,2.90
2023-04-02T14:39:33.073Z,2.60
2023-04-02T14:44:42.439Z,2.40
2023-04-02T14:49:46.113Z,2.40
2023-04-02T14:54:59.695Z,1.93
2023-04-02T15:00:09.827Z,1.90
2023-04-02T15:05:17.775Z,2.10
2023-04-02T15:10:28.513Z,2.00
2023-04-02T15:16:11.461Z,1.83
2023-04-02T15:21:20.155Z,1.63
2023-04-02T15:26:32.095Z,1.70
2023-04-02T15:31:34.279Z,1.97
2023-04-02T15:36:50.968Z,1.73
2023-04-02T15:42:08.093Z,1.63
2023-04-02T15:47:45.684Z,1.90
2023-04-02T15:52:50.464Z,1.77
2023-04-02T15:58:04.532Z,1.40
2023-04-02T16:03:24.455Z,1.43
2023-04-02T16:08:45.585Z,1.50
2023-04-02T16:13:47.480Z,1.73
2023-04-02T16:19:06.339Z,1.70
2023-04-02T16:24:18.857Z,1.63
2023-04-02T16:29:23.382Z,1.53
2023-04-02T16:34:39.967Z,1.80
2023-04-02T16:40:03.404Z,1.40
2023-04-02T16:45:24.057Z,1.60
2023-04-02T16:50:42.112Z,1.40
2023-04-02T16:56:17.967Z,1.30
2023-04-02T17:01:28.140Z,1.60
2023-04-02T17:06:32.679Z,1.70
2023-04-02T17:11:41.790Z,1.90
2023-04-02T17:16:45.844Z,1.83
2023-04-02T17:21:52.333Z,1.70
2023-04-02T17:26:59.102Z,1.80
2023-04-02T17:32:01.984Z,1.60
2023-04-02T17:37:17.920Z,2.00
2023-04-02T17:42:38.543Z,1.93
2023-04-02T17:47:40.404Z,1.80
2023-04-02T17:52:46.487Z,1.90
2023-04-02T17:58:01.302Z,1.97
2023-04-02T18:03:17.835Z,1.70
2023-04-02T18:08:29.553Z,1.87
2023-04-02T18:13:34.824Z,2.10
2023-04-02T18:18:42.571Z,1.97
2023-04-02T18:23:54.326Z,1.90
2023-04-02T18:35:31.972Z,1.90
2023-04-02T18:40:56.013Z,1.90
2023-04-02T18:46:25.614Z,2.17
2023-04-02T18:51:30.164Z,2.07
2023-04-02T18:56:32.424Z,2.23
2023-04-02T19:01:49.784Z,2.27
2023-04-02T19:06:56.446Z,2.00
2023-04-02T19:11:58.130Z,1.90
2023-04-02T19:17:30.462Z,1.80
2023-04-02T19:22:58.724Z,1.93
2023-04-02T19:28:43.861Z,2.07
2023-04-02T19:33:57.492Z,1.83
2023-04-02T19:39:27.638Z,2.00
2023-04-02T19:44:30.016Z,2.20
2023-04-02T19:49:33.965Z,1.60
2023-04-02T19:54:38.397Z,1.87
2023-04-02T19:59:40.344Z,1.80
2023-04-02T20:04:42.612Z,1.77
2023-04-02T20:09:44.204Z,1.73
2023-04-02T20:14:46.097Z,1.70
2023-04-02T20:19:47.725Z,2.10
2023-04-02T20:24:49.458Z,2.13
2023-04-02T20:29:51.234Z,1.70
2023-04-02T20:34:54.238Z,1.73
2023-04-02T20:39:57.850Z,1.77
2023-04-02T20:44:59.485Z,2.10
2023-04-02T20:50:01.540Z,1.87
2023-04-02T20:55:03.793Z,1.70
2023-04-02T21:00:08.230Z,1.80
2023-04-02T21:05:10.095Z,1.73
2023-04-02T21:15:27.391Z,1.90
2023-04-02T21:20:29.272Z,1.73
2023-04-02T21:25:30.998Z,1.90
2023-04-02T21:30:33.224Z,1.80
2023-04-02T21:35:35.121Z,1.60
2023-04-02T21:40:36.874Z,1.80
2023-04-02T21:45:38.565Z,1.90
2023-04-02T21:50:40.218Z,1.80
2023-04-02T21:55:41.904Z,2.10
2023-04-02T22:00:43.616Z,1.90
2023-04-02T22:05:45.506Z,1.90
2023-04-02T22:10:47.185Z,2.00
2023-04-02T22:15:49.114Z,1.90
2023-04-02T22:20:54.365Z,1.90
2023-04-02T22:25:58.000Z,2.00
2023-04-02T22:31:09.531Z,2.00
2023-04-02T22:36:12.252Z,2.30
2023-04-02T22:41:17.155Z,2.20
2023-04-02T22:46:19.914Z,2.17
2023-04-02T22:51:23.046Z,2.17
2023-04-02T22:56:27.797Z,2.03
2023-04-02T23:01:31.952Z,2.13
2023-04-02T23:06:34.130Z,2.60
2023-04-02T23:11:35.792Z,2.40
2023-04-02T23:16:37.524Z,2.40
2023-04-02T23:21:39.125Z,2.40
2023-04-02T23:26:40.875Z,2.50
2023-04-02T23:31:42.569Z,2.30
2023-04-02T23:36:44.203Z,2.50
2023-04-02T23:41:46.735Z,2.70
2023-04-02T23:46:48.397Z,2.50
2023-04-02T23:51:49.996Z,2.90
2023-04-02T23:56:51.608Z,2.20
